createdAt,value
2022-10-17T00:00:37.668Z,1010.38
2022-10-17T00:01:37.671Z,1010.39
2022-10-17T00:02:37.624Z,1010.39
2022-10-17T00:03:37.603Z,1010.39
2022-10-17T00:04:37.583Z,1010.37
2022-10-17T00:05:37.557Z,1010.33
2022-10-17T00:06:37.541Z,1010.30
2022-10-17T00:07:37.515Z,1010.25
2022-10-17T00:08:37.502Z,1010.23
2022-10-17T00:09:37.471Z,1010.24
2022-10-17T00:10:37.450Z,1010.22
2022-10-17T00:11:37.425Z,1010.25
2022-10-17T00:12:37.425Z,1010.31
2022-10-17T00:13:37.413Z,1010.30
2022-10-17T00:14:37.362Z,1010.30
2022-10-17T00:15:37.340Z,1010.27
2022-10-17T00:16:37.317Z,1010.24
2022-10-17T00:17:37.294Z,1010.29
2022-10-17T00:18:37.273Z,1010.28
2022-10-17T00:19:37.253Z,1010.26
2022-10-17T00:20:37.232Z,1010.25
2022-10-17T00:21:37.208Z,1010.23
2022-10-17T00:22:37.189Z,1010.20
2022-10-17T00:23:37.164Z,1010.17
2022-10-17T00:24:37.143Z,1010.18
2022-10-17T00:25:37.121Z,1010.16
2022-10-17T00:26:37.099Z,1010.19
2022-10-17T00:27:37.075Z,1010.15
2022-10-17T00:28:37.140Z,1010.09
2022-10-17T00:29:37.030Z,1010.07
2022-10-17T00:30:37.010Z,1010.06
2022-10-17T00:31:36.985Z,1010.10
2022-10-17T00:32:36.964Z,1010.15
2022-10-17T00:33:36.939Z,1010.14
2022-10-17T00:34:36.921Z,1010.22
2022-10-17T00:35:36.900Z,1010.25
2022-10-17T00:36:36.878Z,1010.24
2022-10-17T00:37:36.854Z,1010.25
2022-10-17T00:38:36.835Z,1010.26
2022-10-17T00:39:36.811Z,1010.24
2022-10-17T00:40:36.792Z,1010.20
2022-10-17T00:41:36.766Z,1010.26
2022-10-17T00:42:36.746Z,1010.18
2022-10-17T00:43:36.723Z,1010.14
2022-10-17T00:44:36.723Z,1010.20
2022-10-17T00:45:36.680Z,1010.12
2022-10-17T00:46:36.659Z,1010.16
2022-10-17T00:47:36.635Z,1010.17
2022-10-17T00:48:36.612Z,1010.19
2022-10-17T00:49:36.591Z,1010.17
2022-10-17T00:50:36.572Z,1010.18
2022-10-17T00:51:36.549Z,1010.19
2022-10-17T00:52:36.523Z,1010.18
2022-10-17T00:53:36.504Z,1010.17
2022-10-17T00:54:36.479Z,1010.15
2022-10-17T00:55:36.458Z,1010.12
2022-10-17T00:56:36.440Z,1010.11
2022-10-17T00:57:36.418Z,1010.08
2022-10-17T00:58:36.394Z,1010.08
2022-10-17T00:59:36.369Z,1010.04
2022-10-17T01:00:36.363Z,1010.04
2022-10-17T01:01:36.372Z,1010.04
2022-10-17T01:02:36.303Z,1010.00
2022-10-17T01:03:36.281Z,1010.01
2022-10-17T01:04:36.259Z,1009.96
2022-10-17T01:05:36.238Z,1009.93
2022-10-17T01:06:36.218Z,1009.92
2022-10-17T01:07:37.318Z,1009.90
2022-10-17T01:08:36.171Z,1009.88
2022-10-17T01:09:36.149Z,1009.90
2022-10-17T01:10:36.129Z,1009.88
2022-10-17T01:11:36.104Z,1009.89
2022-10-17T01:12:36.083Z,1009.85
2022-10-17T01:13:36.060Z,1009.86
2022-10-17T01:14:36.040Z,1009.87
2022-10-17T01:15:36.017Z,1009.85
2022-10-17T01:16:36.019Z,1009.81
2022-10-17T01:17:35.969Z,1009.80
2022-10-17T01:18:35.949Z,1009.76
2022-10-17T01:19:35.931Z,1009.74
2022-10-17T01:20:35.905Z,1009.72
2022-10-17T01:21:35.886Z,1009.75
2022-10-17T01:22:35.861Z,1009.76
2022-10-17T01:23:35.838Z,1009.72
2022-10-17T01:24:35.818Z,1009.73
2022-10-17T01:25:35.797Z,1009.76
2022-10-17T01:26:35.775Z,1009.79
2022-10-17T01:27:35.749Z,1009.72
2022-10-17T01:28:35.860Z,1009.74
2022-10-17T01:29:35.740Z,1009.74
2022-10-17T01:30:35.682Z,1009.73
2022-10-17T01:31:35.658Z,1009.69
2022-10-17T01:32:35.655Z,1009.71
2022-10-17T01:33:35.612Z,1009.67
2022-10-17T01:34:35.594Z,1009.68
2022-10-17T01:35:35.571Z,1009.65
2022-10-17T01:36:35.553Z,1009.65
2022-10-17T01:37:35.523Z,1009.67
2022-10-17T01:38:35.503Z,1009.68
2022-10-17T01:39:36.974Z,1009.64
2022-10-17T01:40:35.457Z,1009.65
2022-10-17T01:41:35.435Z,1009.63
2022-10-17T01:42:35.417Z,1009.61
2022-10-17T01:43:35.390Z,1009.58
2022-10-17T01:44:35.368Z,1009.58
2022-10-17T01:45:35.345Z,1009.58
2022-10-17T01:46:35.325Z,1009.54
2022-10-17T01:47:35.304Z,1009.58
2022-10-17T01:48:35.298Z,1009.58
2022-10-17T01:49:35.253Z,1009.55
2022-10-17T01:50:35.234Z,1009.55
2022-10-17T01:51:35.213Z,1009.56
2022-10-17T01:52:35.305Z,1009.53
2022-10-17T01:53:35.166Z,1009.55
2022-10-17T01:54:35.144Z,1009.58
2022-10-17T01:55:35.122Z,1009.56
2022-10-17T01:56:35.100Z,1009.56
2022-10-17T01:57:35.076Z,1009.53
2022-10-17T01:58:35.054Z,1009.55
2022-10-17T01:59:35.036Z,1009.54
2022-10-17T02:00:35.008Z,1009.56
2022-10-17T02:01:35.064Z,1009.52
2022-10-17T02:02:34.967Z,1009.51
2022-10-17T02:03:34.942Z,1009.55
2022-10-17T02:04:34.939Z,1009.52
2022-10-17T02:05:34.894Z,1009.48
2022-10-17T02:06:34.876Z,1009.47
2022-10-17T02:07:34.851Z,1009.44
2022-10-17T02:08:34.830Z,1009.46
2022-10-17T02:09:34.806Z,1009.43
2022-10-17T02:10:34.786Z,1009.45
2022-10-17T02:11:34.761Z,1009.34
2022-10-17T02:12:34.740Z,1009.39
2022-10-17T02:13:34.716Z,1009.41
2022-10-17T02:14:34.712Z,1009.46
2022-10-17T02:15:34.670Z,1009.42
2022-10-17T02:16:34.649Z,1009.43
2022-10-17T02:17:34.629Z,1009.43
2022-10-17T02:18:34.610Z,1009.42
2022-10-17T02:19:34.582Z,1009.43
2022-10-17T02:20:34.581Z,1009.42
2022-10-17T02:21:34.536Z,1009.39
2022-10-17T02:22:34.517Z,1009.35
2022-10-17T02:23:34.494Z,1009.29
2022-10-17T02:24:34.470Z,1009.29
2022-10-17T02:25:34.446Z,1009.32
2022-10-17T02:26:34.427Z,1009.32
2022-10-17T02:27:34.403Z,1009.29
2022-10-17T02:28:34.414Z,1009.35
2022-10-17T02:29:34.359Z,1009.29
2022-10-17T02:30:34.337Z,1009.27
2022-10-17T02:31:34.315Z,1009.29
2022-10-17T02:32:34.295Z,1009.31
2022-10-17T02:33:34.268Z,1009.30
2022-10-17T02:34:34.285Z,1009.27
2022-10-17T02:35:34.224Z,1009.27
2022-10-17T02:36:34.219Z,1009.25
2022-10-17T02:37:34.181Z,1009.26
2022-10-17T02:38:34.160Z,1009.30
2022-10-17T02:39:34.140Z,1009.23
2022-10-17T02:40:34.119Z,1009.27
2022-10-17T02:41:34.230Z,1009.26
2022-10-17T02:42:34.073Z,1009.24
2022-10-17T02:43:34.048Z,1009.25
2022-10-17T02:44:34.025Z,1009.26
2022-10-17T02:45:34.000Z,1009.26
2022-10-17T02:46:33.984Z,1009.26
2022-10-17T02:47:33.959Z,1009.24
2022-10-17T02:48:33.936Z,1009.30
2022-10-17T02:49:33.910Z,1009.34
2022-10-17T02:50:33.893Z,1009.32
2022-10-17T02:51:33.866Z,1009.37
2022-10-17T02:52:33.863Z,1009.36
2022-10-17T02:53:33.822Z,1009.38
2022-10-17T02:54:33.812Z,1009.35
2022-10-17T02:55:33.776Z,1009.38
2022-10-17T02:56:33.757Z,1009.40
2022-10-17T02:57:33.733Z,1009.37
2022-10-17T02:58:33.714Z,1009.35
2022-10-17T03:00:33.668Z,1009.32
2022-10-17T03:01:33.677Z,1009.29
2022-10-17T03:02:33.624Z,1009.29
2022-10-17T03:03:33.601Z,1009.32
2022-10-17T03:04:33.578Z,1009.32
2022-10-17T03:05:33.555Z,1009.32
2022-10-17T03:06:33.533Z,1009.28
2022-10-17T03:07:33.510Z,1009.27
2022-10-17T03:08:33.583Z,1009.28
2022-10-17T03:09:33.464Z,1009.26
2022-10-17T03:10:33.446Z,1009.25
2022-10-17T03:11:33.423Z,1009.24
2022-10-17T03:12:33.404Z,1009.25
2022-10-17T03:13:35.067Z,1009.24
2022-10-17T03:14:33.357Z,1009.27
2022-10-17T03:15:33.331Z,1009.31
2022-10-17T03:16:33.312Z,1009.29
2022-10-17T03:17:33.329Z,1009.37
2022-10-17T03:18:33.277Z,1009.28
2022-10-17T03:19:33.244Z,1009.27
2022-10-17T03:20:33.222Z,1009.30
2022-10-17T03:21:33.200Z,1009.31
2022-10-17T03:22:33.178Z,1009.25
2022-10-17T03:23:33.155Z,1009.26
2022-10-17T03:24:33.151Z,1009.23
2022-10-17T03:25:33.111Z,1009.26
2022-10-17T03:26:33.108Z,1009.28
2022-10-17T03:27:33.266Z,1009.28
2022-10-17T03:28:33.074Z,1009.29
2022-10-17T03:29:33.034Z,1009.25
2022-10-17T03:30:33.000Z,1009.27
2022-10-17T03:31:32.980Z,1009.28
2022-10-17T03:32:32.957Z,1009.29
2022-10-17T03:33:32.935Z,1009.34
2022-10-17T03:34:32.914Z,1009.35
2022-10-17T03:35:32.892Z,1009.31
2022-10-17T03:36:32.871Z,1009.31
2022-10-17T03:37:33.044Z,1009.32
2022-10-17T03:38:32.825Z,1009.33
2022-10-17T03:39:32.804Z,1009.34
2022-10-17T03:40:32.801Z,1009.32
2022-10-17T03:41:32.762Z,1009.37
2022-10-17T03:42:32.775Z,1009.33
2022-10-17T03:43:32.763Z,1009.28
2022-10-17T03:44:32.727Z,1009.32
2022-10-17T03:45:32.670Z,1009.32
2022-10-17T03:46:32.648Z,1009.29
2022-10-17T03:47:32.866Z,1009.34
2022-10-17T03:48:32.606Z,1009.33
2022-10-17T03:49:32.580Z,1009.33
2022-10-17T03:50:32.564Z,1009.37
2022-10-17T03:51:32.539Z,1009.36
2022-10-17T03:52:32.514Z,1009.41
2022-10-17T03:53:32.495Z,1009.43
2022-10-17T03:54:32.470Z,1009.41
2022-10-17T03:55:32.451Z,1009.39
2022-10-17T03:56:32.442Z,1009.38
2022-10-17T03:57:32.682Z,1009.39
2022-10-17T03:58:32.384Z,1009.40
2022-10-17T03:59:32.361Z,1009.44
2022-10-17T04:00:32.339Z,1009.47
2022-10-17T04:01:32.437Z,1009.46
2022-10-17T04:02:32.296Z,1009.46
2022-10-17T04:03:32.274Z,1009.49
2022-10-17T04:04:32.252Z,1009.51
2022-10-17T04:05:32.229Z,1009.52
2022-10-17T04:06:32.212Z,1009.48
2022-10-17T04:07:32.190Z,1009.48
2022-10-17T04:08:32.161Z,1009.51
2022-10-17T04:09:32.144Z,1009.55
2022-10-17T04:10:32.124Z,1009.56
2022-10-17T04:11:32.097Z,1009.57
2022-10-17T04:12:32.443Z,1009.56
2022-10-17T04:13:32.055Z,1009.55
2022-10-17T04:14:32.032Z,1009.55
2022-10-17T04:15:32.013Z,1009.55
2022-10-17T04:16:31.986Z,1009.52
2022-10-17T04:17:35.905Z,1009.48
2022-10-17T04:18:31.946Z,1009.50
2022-10-17T04:19:31.925Z,1009.51
2022-10-17T04:20:31.896Z,1009.49
2022-10-17T04:21:31.886Z,1009.50
2022-10-17T04:22:32.121Z,1009.50
2022-10-17T04:23:31.837Z,1009.51
2022-10-17T04:24:31.812Z,1009.51
2022-10-17T04:25:34.674Z,1009.51
2022-10-17T04:26:31.765Z,1009.54
2022-10-17T04:27:31.744Z,1009.52
2022-10-17T04:28:31.863Z,1009.53
2022-10-17T04:29:31.699Z,1009.54
2022-10-17T04:30:31.679Z,1009.53
2022-10-17T04:31:31.665Z,1009.53
2022-10-17T04:32:31.921Z,1009.52
2022-10-17T04:33:31.611Z,1009.57
2022-10-17T04:34:31.587Z,1009.55
2022-10-17T04:35:31.568Z,1009.53
2022-10-17T04:36:31.545Z,1009.56
2022-10-17T04:37:31.523Z,1009.60
2022-10-17T04:38:31.500Z,1009.58
2022-10-17T04:39:31.483Z,1009.59
2022-10-17T04:40:31.458Z,1009.53
2022-10-17T04:41:31.437Z,1009.51
2022-10-17T04:42:31.948Z,1009.50
2022-10-17T04:43:31.398Z,1009.54
2022-10-17T04:44:31.388Z,1009.49
2022-10-17T04:45:31.348Z,1009.49
2022-10-17T04:46:31.326Z,1009.45
2022-10-17T04:47:31.305Z,1009.46
2022-10-17T04:48:31.280Z,1009.50
2022-10-17T04:49:31.296Z,1009.46
2022-10-17T04:50:31.239Z,1009.49
2022-10-17T04:51:31.220Z,1009.47
2022-10-17T04:52:31.605Z,1009.50
2022-10-17T04:53:31.173Z,1009.51
2022-10-17T04:54:31.148Z,1009.56
2022-10-17T04:55:31.129Z,1009.54
2022-10-17T04:56:31.104Z,1009.55
2022-10-17T04:57:31.086Z,1009.54
2022-10-17T04:58:31.060Z,1009.53
2022-10-17T04:59:31.043Z,1009.52
2022-10-17T05:00:31.033Z,1009.53
2022-10-17T05:01:31.006Z,1009.51
2022-10-17T05:02:31.170Z,1009.48
2022-10-17T05:03:30.954Z,1009.45
2022-10-17T05:04:30.933Z,1009.45
2022-10-17T05:05:30.910Z,1009.44
2022-10-17T05:06:30.887Z,1009.41
2022-10-17T05:07:30.870Z,1009.42
2022-10-17T05:08:30.842Z,1009.40
2022-10-17T05:09:30.822Z,1009.37
2022-10-17T05:10:30.800Z,1009.33
2022-10-17T05:11:30.804Z,1009.36
2022-10-17T05:12:31.227Z,1009.47
2022-10-17T05:13:30.736Z,1009.44
2022-10-17T05:14:30.711Z,1009.48
2022-10-17T05:15:30.690Z,1009.45
2022-10-17T05:16:30.688Z,1009.36
2022-10-17T05:17:30.647Z,1009.43
2022-10-17T05:18:30.625Z,1009.43
2022-10-17T05:19:30.604Z,1009.42
2022-10-17T05:20:30.584Z,1009.41
2022-10-17T05:21:30.612Z,1009.41
2022-10-17T05:22:30.918Z,1009.44
2022-10-17T05:23:30.520Z,1009.41
2022-10-17T05:24:30.496Z,1009.42
2022-10-17T05:25:30.474Z,1009.41
2022-10-17T05:26:30.455Z,1009.40
2022-10-17T05:27:30.429Z,1009.42
2022-10-17T05:28:30.450Z,1009.35
2022-10-17T05:29:30.412Z,1009.31
2022-10-17T05:30:33.839Z,1009.37
2022-10-17T05:31:30.348Z,1009.45
2022-10-17T05:32:30.703Z,1009.49
2022-10-17T05:33:30.301Z,1009.53
2022-10-17T05:34:30.279Z,1009.56
2022-10-17T05:35:30.256Z,1009.56
2022-10-17T05:36:30.232Z,1009.53
2022-10-17T05:37:30.211Z,1009.59
2022-10-17T05:38:30.201Z,1009.59
2022-10-17T05:39:30.167Z,1009.63
2022-10-17T05:40:30.145Z,1009.60
2022-10-17T05:41:30.133Z,1009.60
2022-10-17T05:42:30.385Z,1009.64
2022-10-17T05:43:30.080Z,1009.69
2022-10-17T05:44:30.058Z,1009.69
2022-10-17T05:45:30.038Z,1009.69
2022-10-17T05:46:30.016Z,1009.62
2022-10-17T05:47:30.334Z,1009.68
2022-10-17T05:48:29.986Z,1009.67
2022-10-17T05:49:44.735Z,1009.72
2022-10-17T05:50:29.931Z,1009.70
2022-10-17T05:51:29.951Z,1009.69
2022-10-17T05:52:30.323Z,1009.68
2022-10-17T05:53:29.862Z,1009.69
2022-10-17T05:54:29.842Z,1009.67
2022-10-17T05:55:29.819Z,1009.74
2022-10-17T05:56:29.796Z,1009.73
2022-10-17T05:57:29.777Z,1009.68
2022-10-17T05:58:49.280Z,1009.64
2022-10-17T05:59:29.731Z,1009.61
2022-10-17T06:00:29.817Z,1009.67
2022-10-17T06:01:29.885Z,1009.65
2022-10-17T06:02:30.007Z,1009.65
2022-10-17T06:03:29.649Z,1009.66
2022-10-17T06:04:29.642Z,1009.68
2022-10-17T06:05:29.602Z,1009.68
2022-10-17T06:06:29.582Z,1009.67
2022-10-17T06:07:29.565Z,1009.64
2022-10-17T06:08:29.535Z,1009.67
2022-10-17T06:09:29.515Z,1009.78
2022-10-17T06:10:29.493Z,1009.72
2022-10-17T06:11:29.478Z,1009.76
2022-10-17T06:12:29.709Z,1009.80
2022-10-17T06:13:29.430Z,1009.79
2022-10-17T06:14:29.405Z,1009.81
2022-10-17T06:15:29.384Z,1009.78
2022-10-17T06:16:29.363Z,1009.79
2022-10-17T06:17:29.346Z,1009.86
2022-10-17T06:18:29.321Z,1009.82
2022-10-17T06:19:29.300Z,1009.76
2022-10-17T06:20:29.295Z,1009.79
2022-10-17T06:21:29.261Z,1009.76
2022-10-17T06:22:29.514Z,1009.76
2022-10-17T06:23:29.214Z,1009.82
2022-10-17T06:24:29.191Z,1009.90
2022-10-17T06:25:29.172Z,1009.89
2022-10-17T06:26:29.156Z,1009.96
2022-10-17T06:27:29.131Z,1010.00
2022-10-17T06:28:29.158Z,1009.97
2022-10-17T06:29:29.083Z,1010.02
2022-10-17T06:30:29.069Z,1010.02
2022-10-17T06:31:29.043Z,1010.10
2022-10-17T06:32:29.283Z,1010.09
2022-10-17T06:33:29.000Z,1010.10
2022-10-17T06:34:28.976Z,1010.10
2022-10-17T06:35:28.959Z,1010.13
2022-10-17T06:36:28.951Z,1010.11
2022-10-17T06:37:30.954Z,1010.10
2022-10-17T06:38:28.892Z,1010.08
2022-10-17T06:39:28.878Z,1010.16
2022-10-17T06:40:28.849Z,1010.17
2022-10-17T06:41:28.827Z,1010.20
2022-10-17T06:42:28.806Z,1010.19
2022-10-17T06:43:28.789Z,1010.23
2022-10-17T06:44:28.763Z,1010.29
2022-10-17T06:45:28.745Z,1010.27
2022-10-17T06:46:28.724Z,1010.29
2022-10-17T06:47:28.999Z,1010.33
2022-10-17T06:48:28.680Z,1010.33
2022-10-17T06:49:28.660Z,1010.36
2022-10-17T06:50:28.641Z,1010.39
2022-10-17T06:51:28.614Z,1010.40
2022-10-17T06:52:28.614Z,1010.41
2022-10-17T06:53:28.587Z,1010.41
2022-10-17T06:54:28.551Z,1010.41
2022-10-17T06:55:28.533Z,1010.44
2022-10-17T06:56:28.512Z,1010.40
2022-10-17T06:57:28.766Z,1010.41
2022-10-17T06:58:28.465Z,1010.38
2022-10-17T06:59:28.450Z,1010.41
2022-10-17T07:00:28.427Z,1010.38
2022-10-17T07:01:28.410Z,1010.36
2022-10-17T07:02:28.731Z,1010.40
2022-10-17T07:03:28.361Z,1010.44
2022-10-17T07:04:28.341Z,1010.45
2022-10-17T07:05:28.321Z,1010.42
2022-10-17T07:06:28.298Z,1010.47
2022-10-17T07:07:28.723Z,1010.41
2022-10-17T07:08:28.274Z,1010.36
2022-10-17T07:09:28.235Z,1010.40
2022-10-17T07:10:28.215Z,1010.33
2022-10-17T07:11:28.195Z,1010.37
2022-10-17T07:12:28.172Z,1010.36
2022-10-17T07:13:28.152Z,1010.45
2022-10-17T07:14:28.132Z,1010.45
2022-10-17T07:15:28.114Z,1010.50
2022-10-17T07:16:28.094Z,1010.54
2022-10-17T07:17:28.365Z,1010.53
2022-10-17T07:18:28.046Z,1010.53
2022-10-17T07:19:28.025Z,1010.54
2022-10-17T07:20:28.003Z,1010.56
2022-10-17T07:21:27.985Z,1010.54
2022-10-17T07:22:27.965Z,1010.54
2022-10-17T07:23:27.943Z,1010.55
2022-10-17T07:24:27.937Z,1010.50
2022-10-17T07:25:27.901Z,1010.52
2022-10-17T07:26:27.879Z,1010.55
2022-10-17T07:27:28.227Z,1010.51
2022-10-17T07:28:27.909Z,1010.54
2022-10-17T07:29:27.819Z,1010.61
2022-10-17T07:30:27.796Z,1010.61
2022-10-17T07:31:27.776Z,1010.55
2022-10-17T07:32:27.756Z,1010.60
2022-10-17T07:33:27.734Z,1010.61
2022-10-17T07:34:27.711Z,1010.61
2022-10-17T07:35:27.691Z,1010.62
2022-10-17T07:36:27.667Z,1010.58
2022-10-17T07:37:27.976Z,1010.64
2022-10-17T07:38:27.628Z,1010.57
2022-10-17T07:39:27.607Z,1010.58
2022-10-17T07:40:27.602Z,1010.63
2022-10-17T07:41:27.567Z,1010.59
2022-10-17T07:42:27.592Z,1010.60
2022-10-17T07:43:27.524Z,1010.61
2022-10-17T07:44:27.501Z,1010.60
2022-10-17T07:45:27.485Z,1010.63
2022-10-17T07:46:27.462Z,1010.64
2022-10-17T07:47:27.816Z,1010.63
2022-10-17T07:48:27.419Z,1010.62
2022-10-17T07:49:27.400Z,1010.66
2022-10-17T07:50:27.376Z,1010.60
2022-10-17T07:51:27.361Z,1010.66
2022-10-17T07:52:27.632Z,1010.65
2022-10-17T07:53:27.313Z,1010.66
2022-10-17T07:54:27.297Z,1010.67
2022-10-17T07:55:27.275Z,1010.64
2022-10-17T07:56:27.284Z,1010.64
2022-10-17T07:57:27.288Z,1010.65
2022-10-17T07:58:27.212Z,1010.59
2022-10-17T07:59:27.190Z,1010.59
2022-10-17T08:00:27.171Z,1010.57
2022-10-17T08:01:27.152Z,1010.63
2022-10-17T08:02:27.481Z,1010.58
2022-10-17T08:03:27.109Z,1010.68
2022-10-17T08:04:27.089Z,1010.64
2022-10-17T08:05:27.066Z,1010.68
2022-10-17T08:06:27.116Z,1010.69
2022-10-17T08:07:29.480Z,1010.66
2022-10-17T08:08:27.013Z,1010.69
2022-10-17T08:09:26.988Z,1010.71
2022-10-17T08:10:26.964Z,1010.69
2022-10-17T08:11:26.945Z,1010.70
2022-10-17T08:12:27.204Z,1010.72
2022-10-17T08:13:26.903Z,1010.77
2022-10-17T08:14:26.887Z,1010.69
2022-10-17T08:15:30.913Z,1010.74
2022-10-17T08:16:26.845Z,1010.74
2022-10-17T08:17:26.851Z,1010.75
2022-10-17T08:18:26.800Z,1010.72
2022-10-17T08:19:26.781Z,1010.67
2022-10-17T08:20:26.764Z,1010.68
2022-10-17T08:21:26.740Z,1010.71
2022-10-17T08:22:27.019Z,1010.72
2022-10-17T08:23:26.698Z,1010.64
2022-10-17T08:24:26.678Z,1010.71
2022-10-17T08:25:26.660Z,1010.65
2022-10-17T08:26:26.638Z,1010.63
2022-10-17T08:27:26.660Z,1010.60
2022-10-17T08:28:26.687Z,1010.64
2022-10-17T08:29:26.579Z,1010.69
2022-10-17T08:30:26.556Z,1010.65
2022-10-17T08:31:26.537Z,1010.69
2022-10-17T08:32:26.743Z,1010.69
2022-10-17T08:33:26.493Z,1010.76
2022-10-17T08:34:26.476Z,1010.69
2022-10-17T08:35:26.457Z,1010.69
2022-10-17T08:36:26.437Z,1010.68
2022-10-17T08:37:26.570Z,1010.63
2022-10-17T08:38:27.975Z,1010.74
2022-10-17T08:39:26.376Z,1010.77
2022-10-17T08:40:26.353Z,1010.79
2022-10-17T08:41:26.335Z,1010.78
2022-10-17T08:42:26.317Z,1010.82
2022-10-17T08:43:26.296Z,1010.87
2022-10-17T08:44:26.345Z,1010.85
2022-10-17T08:45:26.255Z,1010.87
2022-10-17T08:46:26.234Z,1010.85
2022-10-17T08:47:26.368Z,1010.84
2022-10-17T08:48:26.194Z,1010.83
2022-10-17T08:49:26.174Z,1010.81
2022-10-17T08:50:26.158Z,1010.86
2022-10-17T08:51:26.135Z,1010.86
2022-10-17T08:52:26.113Z,1010.87
2022-10-17T08:53:26.092Z,1010.93
2022-10-17T08:54:26.075Z,1010.94
2022-10-17T08:55:26.059Z,1010.97
2022-10-17T08:56:44.023Z,1010.98
2022-10-17T08:57:26.076Z,1010.98
2022-10-17T08:58:26.003Z,1010.96
2022-10-17T08:59:25.977Z,1010.95
2022-10-17T09:01:53.492Z,1010.97
2022-10-17T09:02:53.457Z,1010.98
2022-10-17T09:03:53.429Z,1010.98
2022-10-17T09:04:53.409Z,1010.98
2022-10-17T09:05:53.387Z,1011.05
2022-10-17T09:06:53.369Z,1011.07
2022-10-17T09:07:53.349Z,1011.06
2022-10-17T09:08:53.332Z,1011.01
2022-10-17T09:09:53.306Z,1011.10
2022-10-17T09:10:53.288Z,1011.11
2022-10-17T09:11:53.272Z,1011.18
2022-10-17T09:12:53.252Z,1011.11
2022-10-17T09:13:53.229Z,1011.15
2022-10-17T09:14:53.211Z,1011.14
2022-10-17T09:15:53.191Z,1011.13
2022-10-17T09:16:53.170Z,1011.14
2022-10-17T09:17:53.167Z,1011.20
2022-10-17T09:18:53.132Z,1011.20
2022-10-17T09:19:53.110Z,1011.19
2022-10-17T09:20:53.094Z,1011.14
2022-10-17T09:21:53.076Z,1011.20
2022-10-17T09:22:53.086Z,1011.17
2022-10-17T09:23:59.533Z,1011.16
2022-10-17T09:24:53.016Z,1011.10
2022-10-17T09:25:52.994Z,1011.13
2022-10-17T09:26:52.977Z,1011.13
2022-10-17T09:27:52.954Z,1011.07
2022-10-17T09:28:53.023Z,1011.08
2022-10-17T09:29:52.918Z,1011.09
2022-10-17T09:30:52.898Z,1011.11
2022-10-17T09:31:52.932Z,1011.15
2022-10-17T09:32:52.862Z,1011.25
2022-10-17T09:33:54.804Z,1011.30
2022-10-17T09:34:52.822Z,1011.39
2022-10-17T09:35:52.802Z,1011.37
2022-10-17T09:36:52.785Z,1011.39
2022-10-17T09:37:52.761Z,1011.49
2022-10-17T09:38:52.744Z,1011.49
2022-10-17T09:39:52.728Z,1011.53
2022-10-17T09:40:56.851Z,1011.52
2022-10-17T09:41:52.688Z,1011.53
2022-10-17T09:42:52.669Z,1011.55
2022-10-17T09:43:52.651Z,1011.58
2022-10-17T09:44:52.632Z,1011.55
2022-10-17T09:45:52.615Z,1011.63
2022-10-17T09:46:52.593Z,1011.64
2022-10-17T09:47:52.576Z,1011.73
2022-10-17T09:48:53.487Z,1011.66
2022-10-17T09:49:52.660Z,1011.76
2022-10-17T09:51:02.600Z,1011.71
2022-10-17T09:51:52.499Z,1011.76
2022-10-17T09:52:52.481Z,1011.70
2022-10-17T09:53:52.461Z,1011.70
2022-10-17T09:54:52.447Z,1011.70
2022-10-17T09:55:52.425Z,1011.81
2022-10-17T09:56:52.411Z,1011.81
2022-10-17T09:57:52.389Z,1011.78
2022-10-17T09:58:52.370Z,1011.85
2022-10-17T09:59:52.350Z,1011.81
2022-10-17T10:00:52.394Z,1011.84
2022-10-17T10:01:52.315Z,1011.92
2022-10-17T10:02:52.298Z,1011.87
2022-10-17T10:03:52.278Z,1011.91
2022-10-17T10:05:03.687Z,1011.89
2022-10-17T10:05:52.257Z,1011.93
2022-10-17T10:06:52.224Z,1012.00
2022-10-17T10:07:52.205Z,1012.05
2022-10-17T10:08:52.190Z,1012.03
2022-10-17T10:09:52.166Z,1012.03
2022-10-17T10:10:52.153Z,1012.02
2022-10-17T10:11:52.131Z,1012.01
2022-10-17T10:12:52.118Z,1012.01
2022-10-17T10:13:52.095Z,1011.98
2022-10-17T10:14:54.688Z,1011.96
2022-10-17T10:15:52.062Z,1012.01
2022-10-17T10:16:52.043Z,1011.99
2022-10-17T10:17:52.022Z,1012.01
2022-10-17T10:18:52.007Z,1012.08
2022-10-17T10:19:51.984Z,1012.11
2022-10-17T10:20:51.971Z,1012.11
2022-10-17T10:21:52.057Z,1012.08
2022-10-17T10:22:53.494Z,1012.08
2022-10-17T10:23:51.913Z,1012.08
2022-10-17T10:24:51.897Z,1012.10
2022-10-17T10:25:51.877Z,1012.12
2022-10-17T10:26:51.860Z,1012.13
2022-10-17T10:27:51.842Z,1012.16
2022-10-17T10:28:51.979Z,1012.21
2022-10-17T10:29:51.807Z,1012.19
2022-10-17T10:30:51.787Z,1012.25
2022-10-17T10:31:51.767Z,1012.24
2022-10-17T10:32:51.751Z,1012.27
2022-10-17T10:33:54.593Z,1012.32
2022-10-17T10:34:51.714Z,1012.36
2022-10-17T10:35:51.697Z,1012.43
2022-10-17T10:36:51.681Z,1012.48
2022-10-17T10:37:51.675Z,1012.51
2022-10-17T10:38:51.639Z,1012.52
2022-10-17T10:39:51.621Z,1012.58
2022-10-17T10:40:51.607Z,1012.66
2022-10-17T10:41:51.584Z,1012.73
2022-10-17T10:42:51.569Z,1012.71
2022-10-17T10:43:51.591Z,1012.73
2022-10-17T10:44:51.538Z,1012.74
2022-10-17T10:45:51.516Z,1012.79
2022-10-17T10:46:51.493Z,1012.83
2022-10-17T10:47:51.475Z,1012.86
2022-10-17T10:48:51.461Z,1012.94
2022-10-17T10:49:51.445Z,1013.00
2022-10-17T10:50:51.423Z,1012.93
2022-10-17T10:51:51.402Z,1012.93
2022-10-17T10:52:51.397Z,1012.90
2022-10-17T10:53:51.381Z,1012.86
2022-10-17T10:54:51.349Z,1012.84
2022-10-17T10:55:51.328Z,1012.86
2022-10-17T10:56:53.338Z,1012.94
2022-10-17T10:57:51.290Z,1012.88
2022-10-17T10:58:51.273Z,1012.89
2022-10-17T10:59:51.255Z,1012.85
2022-10-17T11:00:51.294Z,1012.83
2022-10-17T11:01:51.312Z,1012.80
2022-10-17T11:02:51.204Z,1012.79
2022-10-17T11:03:51.180Z,1012.81
2022-10-17T11:04:51.163Z,1012.78
2022-10-17T11:05:51.142Z,1012.79
2022-10-17T11:06:51.137Z,1012.77
2022-10-17T11:07:51.113Z,1012.77
2022-10-17T11:08:51.089Z,1012.79
2022-10-17T11:09:51.086Z,1012.83
2022-10-17T11:10:51.056Z,1012.78
2022-10-17T11:11:51.108Z,1012.74
2022-10-17T11:12:51.016Z,1012.76
2022-10-17T11:13:53.353Z,1012.78
2022-10-17T11:14:50.976Z,1012.72
2022-10-17T11:15:50.957Z,1012.55
2022-10-17T11:16:50.941Z,1012.33
2022-10-17T11:17:50.920Z,1012.23
2022-10-17T11:18:50.901Z,1012.30
2022-10-17T11:19:50.882Z,1012.53
2022-10-17T11:20:50.869Z,1012.73
2022-10-17T11:21:50.848Z,1012.76
2022-10-17T11:22:50.832Z,1012.88
2022-10-17T11:23:50.851Z,1012.93
2022-10-17T11:24:50.791Z,1012.99
2022-10-17T11:25:50.788Z,1012.99
2022-10-17T11:26:50.754Z,1013.06
2022-10-17T11:27:50.735Z,1013.05
2022-10-17T11:28:50.760Z,1013.13
2022-10-17T11:29:50.699Z,1013.22
2022-10-17T11:30:50.680Z,1013.20
2022-10-17T11:31:50.658Z,1013.19
2022-10-17T11:32:50.644Z,1013.21
2022-10-17T11:33:50.624Z,1013.22
2022-10-17T11:34:50.607Z,1013.18
2022-10-17T11:35:50.585Z,1013.18
2022-10-17T11:36:50.568Z,1013.12
2022-10-17T11:37:50.549Z,1013.06
2022-10-17T11:38:50.532Z,1013.00
2022-10-17T11:39:50.516Z,1012.97
2022-10-17T11:40:50.496Z,1012.94
2022-10-17T11:41:50.490Z,1012.99
2022-10-17T11:42:50.458Z,1012.95
2022-10-17T11:43:50.438Z,1012.99
2022-10-17T11:44:50.422Z,1013.01
2022-10-17T11:45:50.401Z,1013.05
2022-10-17T11:46:50.387Z,1013.07
2022-10-17T11:47:50.366Z,1013.06
2022-10-17T11:48:50.348Z,1013.13
2022-10-17T11:49:51.440Z,1013.15
2022-10-17T11:52:05.713Z,1013.16
2022-10-17T11:52:56.314Z,1013.17
2022-10-17T11:53:50.254Z,1013.13
2022-10-17T11:54:50.237Z,1013.11
2022-10-17T11:55:50.217Z,1013.09
2022-10-17T11:56:50.201Z,1013.09
2022-10-17T11:57:50.209Z,1013.14
2022-10-17T11:58:50.163Z,1013.16
2022-10-17T11:59:50.144Z,1013.12
2022-10-17T12:00:50.127Z,1013.10
2022-10-17T12:01:50.115Z,1013.10
2022-10-17T12:02:50.110Z,1013.18
2022-10-17T12:03:50.070Z,1013.22
2022-10-17T12:04:50.143Z,1013.22
2022-10-17T12:05:50.033Z,1013.21
2022-10-17T12:06:50.016Z,1013.17
2022-10-17T12:07:49.995Z,1013.08
2022-10-17T12:08:49.981Z,1013.07